createdAt,value
2022-09-21T00:00:40.846Z,101025.19
2022-09-21T00:05:42.362Z,101029.06
2022-09-21T00:10:49.805Z,101025.81
2022-09-21T00:15:51.107Z,101032.50
2022-09-21T00:20:52.754Z,101025.91
2022-09-21T00:26:07.491Z,101031.25
2022-09-21T00:31:12.299Z,101041.72
2022-09-21T00:36:18.805Z,101039.16
2022-09-21T00:41:20.827Z,101040.94
2022-09-21T00:46:28.691Z,101037.00
2022-09-21T00:51:30.497Z,101043.28
2022-09-21T00:56:31.794Z,101039.19
2022-09-21T01:01:33.096Z,101039.03
2022-09-21T01:06:37.180Z,101037.19
2022-09-21T01:12:03.425Z,101053.88
2022-09-21T01:17:32.142Z,101046.50
2022-09-21T01:23:03.254Z,101051.13
2022-09-21T01:28:07.777Z,101056.56
2022-09-21T01:33:21.280Z,101057.47
2022-09-21T01:39:06.367Z,101062.28
2022-09-21T01:44:13.031Z,101066.69
2022-09-21T01:49:27.513Z,101054.47
2022-09-21T01:54:37.897Z,101060.69
2022-09-21T01:59:47.726Z,101061.13
2022-09-21T02:04:49.101Z,101054.75
2022-09-21T02:09:51.808Z,101043.63
2022-09-21T02:14:55.489Z,101050.69
2022-09-21T02:20:17.479Z,101050.28
2022-09-21T02:25:39.984Z,101056.00
2022-09-21T02:30:47.710Z,101045.16
2022-09-21T02:35:51.960Z,101051.22
2022-09-21T02:41:09.553Z,101046.75
2022-09-21T02:46:19.311Z,101059.19
2022-09-21T02:51:26.038Z,101060.16
2022-09-21T02:56:30.848Z,101054.28
2022-09-21T03:01:33.302Z,101061.97
2022-09-21T03:06:34.634Z,101058.94
2022-09-21T03:11:39.084Z,101057.81
2022-09-21T03:16:40.426Z,101056.22
2022-09-21T03:21:44.651Z,101063.69
2022-09-21T03:26:46.682Z,101062.25
2022-09-21T03:31:47.950Z,101073.84
2022-09-21T03:36:49.208Z,101073.00
2022-09-21T03:41:50.691Z,101078.84
2022-09-21T03:46:52.659Z,101079.88
2022-09-21T03:51:54.556Z,101076.06
2022-09-21T03:56:55.840Z,101083.94
2022-09-21T04:01:57.117Z,101093.34
2022-09-21T04:06:58.901Z,101077.00
2022-09-21T04:12:00.148Z,101090.47
2022-09-21T04:17:01.422Z,101092.72
2022-09-21T04:22:02.711Z,101100.41
2022-09-21T04:27:04.250Z,101094.56
2022-09-21T04:32:05.772Z,101092.66
2022-09-21T04:37:13.384Z,101098.91
2022-09-21T04:42:14.785Z,101092.69
2022-09-21T04:47:16.128Z,101107.16
2022-09-21T04:52:19.220Z,101099.78
2022-09-21T04:57:20.616Z,101110.50
2022-09-21T05:02:22.014Z,101106.53
2022-09-21T05:07:23.327Z,101116.00
2022-09-21T05:12:24.677Z,101122.00
2022-09-21T05:17:26.320Z,101123.22
2022-09-21T05:22:33.248Z,101134.53
2022-09-21T05:27:34.606Z,101136.63
2022-09-21T05:32:52.973Z,101134.16
2022-09-21T05:38:04.161Z,101137.00
2022-09-21T05:43:05.828Z,101138.13
2022-09-21T05:48:20.988Z,101142.88
2022-09-21T05:53:47.882Z,101143.25
2022-09-21T05:58:59.976Z,101150.09
2022-09-21T06:04:02.834Z,101144.38
2022-09-21T06:09:04.289Z,101152.91
2022-09-21T06:14:06.184Z,101157.22
2022-09-21T06:19:11.654Z,101167.59
2022-09-21T06:24:13.194Z,101168.97
2022-09-21T06:29:14.780Z,101163.09
2022-09-21T06:34:16.195Z,101163.00
2022-09-21T06:39:17.592Z,101161.00
2022-09-21T06:44:18.905Z,101168.78
2022-09-21T06:49:20.222Z,101168.59
2022-09-21T06:54:22.082Z,101180.75
2022-09-21T06:59:23.540Z,101176.91
2022-09-21T07:04:25.327Z,101186.16
2022-09-21T07:14:48.314Z,101191.78
2022-09-21T07:19:50.434Z,101191.25
2022-09-21T07:24:51.882Z,101188.09
2022-09-21T07:29:53.275Z,101189.59
2022-09-21T07:34:57.146Z,101185.81
2022-09-21T07:39:58.862Z,101190.63
2022-09-21T07:45:04.327Z,101196.66
2022-09-21T07:50:06.770Z,101187.91
2022-09-21T07:55:08.405Z,101188.91
2022-09-21T08:00:10.393Z,101191.19
2022-09-21T08:05:11.737Z,101188.50
2022-09-21T08:10:13.097Z,101195.78
2022-09-21T08:15:37.084Z,101192.41
2022-09-21T08:20:35.934Z,101194.53
2022-09-21T08:25:37.405Z,101194.41
2022-09-21T08:30:38.681Z,101190.63
2022-09-21T08:35:39.954Z,101184.03
2022-09-21T08:40:41.617Z,101192.06
2022-09-21T08:45:45.328Z,101195.75
2022-09-21T08:51:00.693Z,101195.81
2022-09-21T08:56:02.934Z,101189.38
2022-09-21T09:01:19.515Z,101187.88
2022-09-21T09:06:54.032Z,101187.66
2022-09-21T09:12:11.459Z,101181.44
2022-09-21T09:17:41.009Z,101180.97
2022-09-21T09:23:08.687Z,101178.69
2022-09-21T09:28:29.127Z,101189.72
2022-09-21T09:33:46.887Z,101177.84
2022-09-21T09:39:02.335Z,101174.53
2022-09-21T09:44:20.734Z,101164.59
2022-09-21T09:49:43.401Z,101166.03
2022-09-21T09:54:45.066Z,101159.47
2022-09-21T09:59:54.697Z,101161.53
2022-09-21T10:05:08.819Z,101150.84
2022-09-21T10:10:28.418Z,101146.59
2022-09-21T10:15:29.865Z,101131.75
2022-09-21T10:20:33.116Z,101142.09
2022-09-21T10:25:39.486Z,101142.59
2022-09-21T10:30:41.778Z,101126.50
2022-09-21T10:35:52.238Z,101120.78
2022-09-21T10:40:54.353Z,101105.25
2022-09-21T10:45:57.697Z,101117.56
2022-09-21T10:50:59.265Z,101107.06
2022-09-21T10:56:15.928Z,101111.75
2022-09-21T11:01:28.337Z,101107.81
2022-09-21T11:06:35.662Z,101109.66
2022-09-21T11:11:59.380Z,101099.31
2022-09-21T11:17:12.200Z,101092.03
2022-09-21T11:22:31.488Z,101088.44
2022-09-21T11:28:01.425Z,101085.56
2022-09-21T11:33:43.053Z,101085.06
2022-09-21T11:38:47.311Z,101082.22
2022-09-21T11:44:14.392Z,101072.06
2022-09-21T11:49:46.765Z,101071.00
2022-09-21T11:54:58.358Z,101059.66
2022-09-21T12:00:05.961Z,101064.78
2022-09-21T12:05:20.051Z,101049.63
2022-09-21T12:11:01.385Z,101042.66
2022-09-21T12:16:38.327Z,101028.66
2022-09-21T12:21:50.502Z,101034.66
2022-09-21T12:26:57.034Z,101032.72
2022-09-21T12:32:07.777Z,101035.72
2022-09-21T12:37:24.106Z,101031.00
2022-09-21T12:42:34.867Z,101027.88
2022-09-21T12:47:53.449Z,101010.81
2022-09-21T12:52:57.209Z,101011.34
2022-09-21T12:58:30.788Z,101010.75
2022-09-21T13:04:01.902Z,101003.41
2022-09-21T13:09:07.303Z,100998.97
2022-09-21T13:14:13.131Z,100994.75
2022-09-21T13:19:23.009Z,100988.69
2022-09-21T13:24:29.427Z,100986.16
2022-09-21T13:29:33.392Z,100974.47
2022-09-21T13:34:37.040Z,100972.22
2022-09-21T13:39:51.123Z,100969.66
2022-09-21T13:44:52.462Z,100965.78
2022-09-21T13:49:59.722Z,100964.28
2022-09-21T13:55:05.434Z,100961.47
2022-09-21T14:00:12.772Z,100959.88
2022-09-21T14:05:23.361Z,100944.06
2022-09-21T14:10:25.857Z,100953.75
2022-09-21T14:15:27.094Z,100949.09
2022-09-21T14:20:34.642Z,100957.72
2022-09-21T14:25:53.109Z,100954.94
2022-09-21T14:30:58.097Z,100947.53
2022-09-21T14:36:05.503Z,100947.97
2022-09-21T14:41:08.497Z,100940.56
2022-09-21T14:46:24.450Z,100945.81
2022-09-21T14:51:46.846Z,100937.78
2022-09-21T14:57:12.534Z,100931.28
2022-09-21T15:02:22.303Z,100931.19
2022-09-21T15:08:00.387Z,100915.50
2022-09-21T15:13:11.608Z,100911.78
2022-09-21T15:18:20.300Z,100910.38
2022-09-21T15:23:25.124Z,100913.75
2022-09-21T15:28:57.996Z,100913.06
2022-09-21T15:33:57.066Z,100896.88
2022-09-21T15:39:01.062Z,100908.56
2022-09-21T15:44:14.165Z,100901.97
2022-09-21T15:49:21.284Z,100909.59
2022-09-21T15:54:30.444Z,100906.00
2022-09-21T15:59:31.723Z,100898.59
2022-09-21T16:04:33.799Z,100898.44
2022-09-21T16:09:42.434Z,100902.28
2022-09-21T16:14:57.968Z,100902.44
2022-09-21T16:20:19.468Z,100910.13
2022-09-21T16:25:21.444Z,100914.81
2022-09-21T16:30:44.576Z,100915.28
2022-09-21T16:35:46.080Z,100917.78
2022-09-21T16:40:47.499Z,100918.19
2022-09-21T16:45:48.768Z,100920.81
2022-09-21T16:50:52.029Z,100924.13
2022-09-21T16:55:56.355Z,100915.53
2022-09-21T17:01:00.795Z,100921.56
2022-09-21T17:06:02.580Z,100929.03
2022-09-21T17:11:04.388Z,100921.69
2022-09-21T17:16:06.023Z,100933.09
2022-09-21T17:21:08.750Z,100920.53
2022-09-21T17:26:19.118Z,100935.03
2022-09-21T17:31:23.998Z,100932.75
2022-09-21T17:36:25.279Z,100930.69
2022-09-21T17:41:34.831Z,100932.63
2022-09-21T17:46:46.035Z,100938.69
2022-09-21T17:52:06.158Z,100947.06
2022-09-21T17:57:21.629Z,100948.63
2022-09-21T18:02:25.288Z,100945.16
2022-09-21T18:07:27.348Z,100952.81
2022-09-21T18:12:38.362Z,100964.41
2022-09-21T18:17:48.345Z,100968.13
2022-09-21T18:23:24.052Z,100955.31
2022-09-21T18:28:59.361Z,100973.69
2022-09-21T18:34:12.868Z,100972.97
2022-09-21T18:39:23.218Z,100974.53
2022-09-21T18:44:46.636Z,100975.97
2022-09-21T18:50:18.385Z,100984.63
2022-09-21T18:55:26.920Z,100986.59
2022-09-21T19:00:31.494Z,100985.16
2022-09-21T19:05:33.292Z,100982.66
2022-09-21T19:10:43.668Z,100993.81
2022-09-21T19:16:00.244Z,100990.13
2022-09-21T19:21:21.339Z,100982.63
2022-09-21T19:26:38.808Z,100987.16
2022-09-21T19:31:40.253Z,100979.25
2022-09-21T19:36:42.365Z,100985.19
2022-09-21T19:41:58.899Z,100994.53
2022-09-21T19:47:12.624Z,100988.28
2022-09-21T19:52:17.647Z,100983.16
2022-09-21T19:57:56.885Z,100986.97
2022-09-21T20:03:21.730Z,100982.59
2022-09-21T20:08:33.693Z,100984.34
2022-09-21T20:13:41.178Z,100986.75
2022-09-21T20:19:06.108Z,100986.47
2022-09-21T20:24:26.820Z,100992.66
2022-09-21T20:29:28.534Z,100984.34
2022-09-21T20:34:31.373Z,100994.31
2022-09-21T20:39:32.850Z,100993.16
2022-09-21T20:44:34.450Z,100989.69
2022-09-21T20:49:35.882Z,100993.94
2022-09-21T20:54:37.241Z,100996.44
2022-09-21T20:59:39.363Z,100992.97
2022-09-21T21:04:40.833Z,100993.91
2022-09-21T21:09:42.112Z,100995.13
2022-09-21T21:14:45.254Z,100984.66
2022-09-21T21:19:46.517Z,100988.28
2022-09-21T21:24:47.864Z,100992.41
2022-09-21T21:29:50.721Z,100990.28
2022-09-21T21:34:53.561Z,100987.97
2022-09-21T21:39:55.991Z,100988.94
2022-09-21T21:44:57.286Z,100986.78
2022-09-21T21:49:58.526Z,100994.31
2022-09-21T21:54:59.780Z,100981.16
2022-09-21T22:00:01.229Z,100983.97
2022-09-21T22:05:02.582Z,100998.16
2022-09-21T22:10:04.118Z,100994.25
2022-09-21T22:15:06.074Z,100990.69
2022-09-21T22:20:08.465Z,100996.78
2022-09-21T22:25:09.733Z,101005.22
2022-09-21T22:30:11.432Z,100988.97
2022-09-21T22:35:12.804Z,100994.19
2022-09-21T22:40:15.303Z,100997.13
2022-09-21T22:45:16.693Z,100985.25
2022-09-21T22:50:17.962Z,100984.31
2022-09-21T22:55:19.225Z,100987.84
2022-09-21T23:00:20.460Z,100993.81
2022-09-21T23:05:23.027Z,100979.41
2022-09-21T23:10:26.546Z,100985.84
2022-09-21T23:15:27.787Z,100976.84
2022-09-21T23:20:29.038Z,100980.88
2022-09-21T23:25:30.317Z,100978.78
2022-09-21T23:30:31.581Z,100974.66
2022-09-21T23:35:32.878Z,100979.03
2022-09-21T23:40:34.263Z,100965.16
2022-09-21T23:45:35.590Z,100973.41
2022-09-21T23:50:36.893Z,100970.47
2022-09-21T23:55:39.181Z,100972.50
